Airfield :
LOGIN :

Register | Disclaimer

   EN    FR    IT 

 










Legend :    VFR   Marginal VFR   IFR   Intensive IFR   Very Intensive IFR
Visi :
Ceiling :
>= 8 km
>= 3000ft
5 to 8 km
1000 to 3000 ft
1500m to 5 km
500 to 1000 ft
800 to 1500m
200 to 500 ft
< 800m
< 200 ft
Symbols :   Thunderstorms  Fog  Heavy snow  Heavy precipitations  Wind > 20 kt
SIGMETs :     Misc.  Thunderstorms  Icing  Turbulence  Mountain Waves  Volcanic Ashes






- Airport Elevation : 913 ft


LFSX - Luxeuil

CURRENT METAR :
  • 030100Z AUTO 30003KT CAVOK 00/M03 Q1015

EXPIRED METARs :
  • 030030Z AUTO 29003KT CAVOK 01/M02 Q1015
  • 030000Z AUTO 25003KT CAVOK 01/M02 Q1015
  • 022330Z AUTO VRB02KT CAVOK 03/M03 Q1015
  • 022300Z AUTO 34004KT CAVOK 05/M02 Q1015
  • 022230Z AUTO 34005KT 310V010 CAVOK 06/M02 Q1015
  • 022200Z AUTO 34008KT 300V010 CAVOK 06/M02 Q1015

TAF TAF LFSX
Valid from the 02 at 21:00 until the 03 at 21:00 UTC


022000Z 0221/0321 32005KT CAVOK



MET'MAP, your aeronautical weather chart ! - Copyright ORBIFLY December 2007 - Disclaimer

ORBIFLY MET'MAP TEAM :

Programming & Development : Alexandra Zaïnal
Concept & original design : Baudouin d'Aumeries
Assistance for programming : Marc-Olivier Méhu
Technical & hardware support : Manuel Goepfert

Contact : metmap@orbifly.com




SOURCES & CREDITS :

   NOAA